Meriden, Connecticut
Current Conditions -  °F | °C
As of 4:53 PM on Wednesday 28 Jan 2015 (Local Time) from KMMK Reporting Station
Clear Clear  
Wind Chill: 15°   Ceiling: Unl
Heat Index: 26°   Visibility: 10mi
Dew Point:   Wind: 13mph
Humidity: 44%   Direction: 340°NNW
Pressure: 30.1"   Gusts: 28mph
Location:  41.54°N, 72.8°W
Report Text: KMMK 282153Z AUTO 34011G24KT 10SM CLR M03/M14 A3010 RMK AO2 SLP195 T10331139 TSNO
Loading
Personal Weather Stations






























Interactive Weather Map New forecast layout! Learn more

10-Day Weather Forecast

Advertisements
Track Severe Weather on mobile